Time;durP1;ratioP1;P1;durP2;ratioP2;P2;SDS_P1;SDS_P2;PMS_P1;PMS_P2;Temp;Humidity;BMP_temperature;BMP_pressure;BME280_temperature;BME280_humidity;BME280_pressure;Samples;Min_cycle;Max_cycle;Signal;HPM_P1;HPM_P2
2024/02/23 00:00:11;;;;;;;0.20;0.03;;;;;;;;;;5079455;28;20371;-85
2024/02/23 00:02:37;;;;;;;0.30;0.10;;;;;;;;;;5078343;28;20375;-85
2024/02/23 00:05:03;;;;;;;0.70;0.10;;;;;;;;;;5077351;28;20858;-85
2024/02/23 00:07:29;;;;;;;0.57;0.10;;;;;;;;;;5076818;28;20411;-85
2024/02/23 00:09:55;;;;;;;0.20;0.10;;;;;;;;;;5078062;28;20387;-85
2024/02/23 00:12:21;;;;;;;0.00;0.00;;;;;;;;;;5077126;28;20396;-85
2024/02/23 00:14:47;;;;;;;0.05;0.05;;;;;;;;;;5078236;28;20849;-85
2024/02/23 00:17:13;;;;;;;0.10;0.10;;;;;;;;;;5077686;28;20380;-85
2024/02/23 00:19:39;;;;;;;0.30;0.10;;;;;;;;;;5076533;28;20382;-85
2024/02/23 00:22:05;;;;;;;0.20;0.10;;;;;;;;;;5076136;28;20376;-85
2024/02/23 00:24:31;;;;;;;0.20;0.20;;;;;;;;;;5078605;28;20383;-85
2024/02/23 00:26:57;;;;;;;0.75;0.30;;;;;;;;;;5078072;28;20419;-85
2024/02/23 00:29:24;;;;;;;0.30;0.13;;;;;;;;;;5073470;28;20416;-84
2024/02/23 00:31:50;;;;;;;0.50;0.20;;;;;;;;;;5076996;28;20407;-84
2024/02/23 00:34:17;;;;;;;0.30;0.10;;;;;;;;;;5077678;28;20427;-84
2024/02/23 00:36:44;;;;;;;0.40;0.30;;;;;;;;;;5078583;28;20508;-85
2024/02/23 00:39:10;;;;;;;1.60;0.20;;;;;;;;;;5075497;28;20441;-84
2024/02/23 00:41:36;;;;;;;0.30;0.20;;;;;;;;;;5075980;28;20441;-85
2024/02/23 00:44:03;;;;;;;0.22;0.20;;;;;;;;;;5073768;28;20953;-85
2024/02/23 00:46:29;;;;;;;0.70;0.20;;;;;;;;;;5074719;28;20451;-85
2024/02/23 00:48:55;;;;;;;0.20;0.20;;;;;;;;;;5073878;28;20380;-85
2024/02/23 00:51:21;;;;;;;0.50;0.10;;;;;;;;;;5072560;28;20380;-84
2024/02/23 00:53:47;;;;;;;0.38;0.10;;;;;;;;;;5070350;28;20376;-85
2024/02/23 00:56:13;;;;;;;0.47;0.20;;;;;;;;;;5071403;28;20373;-85
2024/02/23 00:58:40;;;;;;;0.17;0.10;;;;;;;;;;5056508;28;20384;-85
2024/02/23 01:01:09;;;;;;;0.30;0.10;;;;;;;;;;5061229;28;20376;-84
2024/02/23 01:03:35;;;;;;;0.70;0.20;;;;;;;;;;5059952;28;20413;-85
2024/02/23 01:06:01;;;;;;;1.23;0.30;;;;;;;;;;5058347;28;20421;-85
2024/02/23 01:08:27;;;;;;;0.20;0.20;;;;;;;;;;5057427;28;20496;-85
2024/02/23 01:10:53;;;;;;;0.60;0.20;;;;;;;;;;5057126;28;20417;-85
2024/02/23 01:13:19;;;;;;;0.38;0.20;;;;;;;;;;5058052;28;20420;-85
2024/02/23 01:15:45;;;;;;;0.10;0.10;;;;;;;;;;5059287;28;20386;-85
2024/02/23 01:18:11;;;;;;;0.35;0.10;;;;;;;;;;5063951;28;20384;-85
2024/02/23 01:20:37;;;;;;;0.43;0.10;;;;;;;;;;5069562;28;20392;-87
2024/02/23 01:23:03;;;;;;;0.30;0.10;;;;;;;;;;5070619;28;20390;-85
2024/02/23 01:25:29;;;;;;;0.00;0.00;;;;;;;;;;5074884;28;20875;-86
2024/02/23 01:27:55;;;;;;;0.30;0.10;;;;;;;;;;5068773;28;20385;-86
2024/02/23 01:30:21;;;;;;;0.20;0.10;;;;;;;;;;5072204;28;20408;-86
2024/02/23 01:32:50;;;;;;;0.10;0.10;;;;;;;;;;5065667;28;20417;-86
2024/02/23 01:35:16;;;;;;;0.10;0.07;;;;;;;;;;5064118;28;20441;-85
2024/02/23 01:37:42;;;;;;;0.10;0.10;;;;;;;;;;5065053;28;20393;-85
2024/02/23 01:40:08;;;;;;;0.10;0.10;;;;;;;;;;5079022;28;20380;-85
2024/02/23 01:42:34;;;;;;;0.10;0.10;;;;;;;;;;5078328;28;20766;-85
2024/02/23 01:45:01;;;;;;;0.10;0.10;;;;;;;;;;5080826;28;20478;-85
2024/02/23 01:47:28;;;;;;;0.30;0.30;;;;;;;;;;5073245;28;20389;-85
2024/02/23 01:49:54;;;;;;;0.30;0.20;;;;;;;;;;5076615;28;20442;-86
2024/02/23 01:52:21;;;;;;;0.20;0.10;;;;;;;;;;5079700;28;20400;-85
2024/02/23 01:54:47;;;;;;;0.50;0.20;;;;;;;;;;5069945;28;20920;-85
2024/02/23 01:57:14;;;;;;;0.07;0.00;;;;;;;;;;5062830;28;20909;-85
2024/02/23 01:59:40;;;;;;;0.28;0.20;;;;;;;;;;5071290;28;20395;-85
2024/02/23 02:02:06;;;;;;;0.20;0.20;;;;;;;;;;5060223;28;20435;-85
2024/02/23 02:04:33;;;;;;;0.13;0.13;;;;;;;;;;5060935;28;20386;-86
2024/02/23 02:06:59;;;;;;;0.10;0.10;;;;;;;;;;5061350;28;20376;-85
2024/02/23 02:09:26;;;;;;;0.10;0.10;;;;;;;;;;5060136;28;20405;-85
2024/02/23 02:11:52;;;;;;;0.20;0.20;;;;;;;;;;5060466;28;20398;-85
2024/02/23 02:14:18;;;;;;;0.10;0.10;;;;;;;;;;5059267;28;20486;-85
2024/02/23 02:16:44;;;;;;;0.10;0.10;;;;;;;;;;5059962;28;20370;-85
2024/02/23 02:19:11;;;;;;;0.10;0.10;;;;;;;;;;5059580;28;20408;-85
2024/02/23 02:21:37;;;;;;;0.10;0.10;;;;;;;;;;5066888;28;20386;-85
2024/02/23 02:24:03;;;;;;;0.10;0.00;;;;;;;;;;5067887;28;20384;-84
2024/02/23 02:26:30;;;;;;;0.20;0.10;;;;;;;;;;5058337;28;20389;-85
2024/02/23 02:28:56;;;;;;;0.80;0.10;;;;;;;;;;5056500;28;20420;-84
2024/02/23 02:31:22;;;;;;;0.10;0.10;;;;;;;;;;5058147;28;20747;-85
2024/02/23 02:33:48;;;;;;;0.10;0.10;;;;;;;;;;5059457;28;20386;-85
2024/02/23 02:36:13;;;;;;;0.63;0.20;;;;;;;;;;5058795;28;20378;-85
2024/02/23 02:38:40;;;;;;;0.35;0.13;;;;;;;;;;5061696;28;20511;-85
2024/02/23 02:41:06;;;;;;;0.80;0.10;;;;;;;;;;5065199;28;20870;-85
2024/02/23 02:43:32;;;;;;;0.20;0.20;;;;;;;;;;5058345;28;20386;-85
2024/02/23 02:45:59;;;;;;;0.55;0.20;;;;;;;;;;5059318;28;20389;-85
2024/02/23 02:48:25;;;;;;;0.50;0.20;;;;;;;;;;5058750;28;20377;-85
2024/02/23 02:50:51;;;;;;;0.43;0.10;;;;;;;;;;5058856;28;20384;-84
2024/02/23 02:53:18;;;;;;;0.22;0.20;;;;;;;;;;5074023;28;20938;-84
2024/02/23 02:55:44;;;;;;;0.50;0.22;;;;;;;;;;5063358;28;20376;-84
2024/02/23 02:58:12;;;;;;;0.30;0.20;;;;;;;;;;5067334;28;20412;-84
2024/02/23 03:00:38;;;;;;;0.80;0.40;;;;;;;;;;5059349;28;20507;-86
2024/02/23 03:03:05;;;;;;;0.30;0.20;;;;;;;;;;5069646;28;20385;-84
2024/02/23 03:05:31;;;;;;;0.20;0.20;;;;;;;;;;5058514;28;20382;-85
2024/02/23 03:07:57;;;;;;;0.90;0.20;;;;;;;;;;5059556;28;20385;-85
2024/02/23 03:10:23;;;;;;;0.55;0.20;;;;;;;;;;5058502;28;20389;-85
2024/02/23 03:12:48;;;;;;;0.35;0.20;;;;;;;;;;5059079;28;20401;-85
2024/02/23 03:15:15;;;;;;;1.27;0.20;;;;;;;;;;5058971;28;20393;-85
2024/02/23 03:17:41;;;;;;;1.00;0.30;;;;;;;;;;5059117;28;20847;-85
2024/02/23 03:20:11;;;;;;;0.95;0.38;;;;;;;;;;5059041;28;20403;-85
2024/02/23 03:22:37;;;;;;;1.60;0.30;;;;;;;;;;5073981;28;20380;-85
2024/02/23 03:25:09;;;;;;;0.90;0.30;;;;;;;;;;5066835;28;20391;-85
2024/02/23 03:27:36;;;;;;;0.73;0.40;;;;;;;;;;5065347;28;20381;-85
2024/02/23 03:30:08;;;;;;;1.73;0.60;;;;;;;;;;5058409;28;20756;-85
2024/02/23 03:32:36;;;;;;;2.10;0.73;;;;;;;;;;5058935;28;20444;-85
2024/02/23 03:35:08;;;;;;;0.70;0.20;;;;;;;;;;5059143;28;20400;-85
2024/02/23 03:37:34;;;;;;;0.50;0.28;;;;;;;;;;5058403;28;20867;-85
2024/02/23 03:40:00;;;;;;;0.88;0.40;;;;;;;;;;5059800;28;20384;-85
2024/02/23 03:42:27;;;;;;;0.85;0.30;;;;;;;;;;5060554;28;20408;-85
2024/02/23 03:44:53;;;;;;;1.13;0.30;;;;;;;;;;5059835;28;20380;-85
2024/02/23 03:47:19;;;;;;;1.85;0.32;;;;;;;;;;5059329;28;20448;-85
2024/02/23 03:49:45;;;;;;;1.33;0.50;;;;;;;;;;5059358;28;20382;-85
2024/02/23 03:52:11;;;;;;;1.90;0.60;;;;;;;;;;5059231;28;20413;-85
2024/02/23 03:54:37;;;;;;;1.05;0.40;;;;;;;;;;5058915;28;20459;-85
2024/02/23 03:57:03;;;;;;;1.17;0.40;;;;;;;;;;5074184;28;20380;-85
2024/02/23 03:59:29;;;;;;;1.55;0.20;;;;;;;;;;5072158;28;20405;-85
2024/02/23 04:01:55;;;;;;;1.65;0.55;;;;;;;;;;5057155;28;20377;-85
2024/02/23 04:04:21;;;;;;;2.53;1.27;;;;;;;;;;5059401;28;20847;-84
2024/02/23 04:06:47;;;;;;;1.40;0.70;;;;;;;;;;5058327;28;20377;-84
2024/02/23 04:09:13;;;;;;;2.57;0.80;;;;;;;;;;5058515;28;20378;-85
2024/02/23 04:11:39;;;;;;;0.73;0.40;;;;;;;;;;5056763;28;20757;-85
2024/02/23 04:14:05;;;;;;;0.70;0.50;;;;;;;;;;5058327;28;20420;-84
2024/02/23 04:16:31;;;;;;;1.20;0.70;;;;;;;;;;5058900;28;20735;-84
2024/02/23 04:18:59;;;;;;;1.42;0.50;;;;;;;;;;5057585;28;20384;-84
2024/02/23 04:21:25;;;;;;;1.38;0.50;;;;;;;;;;5058166;28;20872;-84
2024/02/23 04:23:51;;;;;;;0.95;0.40;;;;;;;;;;5056022;28;20434;-84
2024/02/23 04:26:17;;;;;;;1.17;0.40;;;;;;;;;;5056475;28;20377;-84
2024/02/23 04:28:43;;;;;;;0.90;0.50;;;;;;;;;;5056155;28;20381;-84
2024/02/23 04:31:09;;;;;;;1.58;0.50;;;;;;;;;;5056462;28;20381;-84
2024/02/23 04:33:36;;;;;;;0.47;0.30;;;;;;;;;;5055859;28;20441;-84
2024/02/23 04:36:03;;;;;;;1.15;0.30;;;;;;;;;;5056037;28;20432;-84
2024/02/23 04:38:29;;;;;;;1.27;0.40;;;;;;;;;;5056319;28;20369;-84
2024/02/23 04:40:56;;;;;;;0.60;0.40;;;;;;;;;;5055808;28;20389;-84
2024/02/23 04:43:22;;;;;;;3.17;0.90;;;;;;;;;;5057347;28;20396;-84
2024/02/23 04:45:48;;;;;;;2.70;1.10;;;;;;;;;;5064843;28;20435;-85
2024/02/23 04:48:15;;;;;;;3.40;1.00;;;;;;;;;;5058312;28;20378;-84
2024/02/23 04:50:40;;;;;;;1.92;0.70;;;;;;;;;;5057423;28;20381;-85
2024/02/23 04:53:07;;;;;;;1.08;0.65;;;;;;;;;;5070281;28;20904;-85
2024/02/23 04:55:33;;;;;;;0.85;0.32;;;;;;;;;;5080361;28;20780;-84
2024/02/23 04:57:59;;;;;;;1.58;0.43;;;;;;;;;;5080066;28;20423;-84
2024/02/23 05:00:32;;;;;;;1.23;0.50;;;;;;;;;;5063572;28;20412;-84
2024/02/23 05:02:58;;;;;;;0.70;0.30;;;;;;;;;;5065511;28;20384;-85
2024/02/23 05:05:24;;;;;;;2.13;0.45;;;;;;;;;;5077670;28;20422;-84
2024/02/23 05:07:50;;;;;;;0.60;0.30;;;;;;;;;;5070479;28;20381;-83
2024/02/23 05:10:17;;;;;;;0.50;0.30;;;;;;;;;;5054280;28;20747;-84
2024/02/23 05:12:43;;;;;;;0.85;0.30;;;;;;;;;;5054060;28;20416;-84
2024/02/23 05:15:09;;;;;;;1.45;0.50;;;;;;;;;;5054710;28;20374;-83
2024/02/23 05:17:35;;;;;;;1.73;0.38;;;;;;;;;;5054184;28;20374;-83
2024/02/23 05:20:07;;;;;;;0.98;0.20;;;;;;;;;;5054271;28;20873;-83
2024/02/23 05:22:33;;;;;;;1.77;0.50;;;;;;;;;;5068910;28;20425;-83
2024/02/23 05:24:59;;;;;;;1.40;0.40;;;;;;;;;;5054074;28;20447;-83
2024/02/23 05:27:27;;;;;;;1.08;0.45;;;;;;;;;;5055892;28;20382;-84
2024/02/23 05:29:53;;;;;;;0.90;0.30;;;;;;;;;;5057736;28;20405;-84
2024/02/23 05:32:19;;;;;;;1.60;0.60;;;;;;;;;;5058830;28;20599;-84
2024/02/23 05:34:45;;;;;;;0.85;0.40;;;;;;;;;;5059961;28;20380;-84
2024/02/23 05:37:11;;;;;;;0.77;0.30;;;;;;;;;;5057091;28;20385;-84
2024/02/23 05:39:37;;;;;;;3.15;0.47;;;;;;;;;;5057539;28;20856;-85
2024/02/23 05:42:04;;;;;;;0.98;0.40;;;;;;;;;;5056218;28;20393;-84
2024/02/23 05:44:30;;;;;;;1.58;0.40;;;;;;;;;;5056880;28;20377;-84
2024/02/23 05:46:56;;;;;;;1.37;0.40;;;;;;;;;;5058418;28;20473;-84
2024/02/23 05:49:22;;;;;;;2.45;0.68;;;;;;;;;;5058478;28;20389;-84
2024/02/23 05:51:48;;;;;;;2.15;0.60;;;;;;;;;;5058029;28;20416;-84
2024/02/23 05:54:14;;;;;;;1.83;0.50;;;;;;;;;;5077121;28;20417;-84
2024/02/23 05:56:40;;;;;;;2.53;0.80;;;;;;;;;;5077763;28;20383;-84
2024/02/23 05:59:06;;;;;;;1.27;0.50;;;;;;;;;;5072959;28;20378;-84
2024/02/23 06:01:32;;;;;;;1.25;0.70;;;;;;;;;;5057488;28;20393;-84
2024/02/23 06:03:58;;;;;;;1.20;0.45;;;;;;;;;;5074698;28;20380;-84
2024/02/23 06:06:24;;;;;;;2.15;0.70;;;;;;;;;;5079227;28;20379;-84
2024/02/23 06:08:51;;;;;;;1.00;0.50;;;;;;;;;;5066274;28;20389;-85
2024/02/23 06:11:17;;;;;;;1.38;0.57;;;;;;;;;;5081357;28;20406;-84
2024/02/23 06:13:43;;;;;;;1.50;0.70;;;;;;;;;;5075090;28;20888;-84
2024/02/23 06:16:12;;;;;;;2.55;0.60;;;;;;;;;;5059123;28;20377;-84
2024/02/23 06:18:42;;;;;;;1.10;0.50;;;;;;;;;;5069926;28;20809;-84
2024/02/23 06:21:17;;;;;;;1.88;0.60;;;;;;;;;;5066393;28;20906;-84
2024/02/23 06:23:44;;;;;;;2.00;0.50;;;;;;;;;;5065965;28;20387;-84
2024/02/23 06:26:10;;;;;;;2.17;0.70;;;;;;;;;;5065470;28;20392;-84
2024/02/23 06:28:38;;;;;;;1.63;0.50;;;;;;;;;;5060088;28;20482;-84
2024/02/23 06:31:04;;;;;;;2.17;0.60;;;;;;;;;;5060720;28;20888;-83
2024/02/23 06:33:31;;;;;;;1.58;0.40;;;;;;;;;;5077727;28;20395;-83
2024/02/23 06:35:57;;;;;;;3.25;0.70;;;;;;;;;;5068171;28;20380;-83
2024/02/23 06:38:23;;;;;;;2.65;0.50;;;;;;;;;;5070113;28;20912;-84
2024/02/23 06:40:49;;;;;;;1.75;0.60;;;;;;;;;;5065679;28;20382;-84
2024/02/23 06:43:15;;;;;;;2.90;1.10;;;;;;;;;;5069955;28;20380;-84
2024/02/23 06:45:41;;;;;;;1.77;1.30;;;;;;;;;;5066030;28;20396;-83
2024/02/23 06:48:07;;;;;;;4.20;1.20;;;;;;;;;;5064283;28;20870;-84
2024/02/23 06:50:33;;;;;;;2.92;0.80;;;;;;;;;;5063228;28;20472;-84
2024/02/23 06:52:59;;;;;;;3.25;0.60;;;;;;;;;;5069323;28;20902;-84
2024/02/23 06:55:25;;;;;;;2.08;0.70;;;;;;;;;;5076520;28;20388;-84
2024/02/23 06:57:51;;;;;;;4.22;0.60;;;;;;;;;;5078044;28;20733;-84
2024/02/23 07:00:17;;;;;;;4.78;0.65;;;;;;;;;;5064523;28;20468;-84
2024/02/23 07:02:43;;;;;;;2.10;0.82;;;;;;;;;;5077262;28;20458;-84
2024/02/23 07:05:09;;;;;;;1.60;0.65;;;;;;;;;;5076320;28;20388;-84
2024/02/23 07:07:35;;;;;;;3.83;0.63;;;;;;;;;;5061552;28;20416;-84
2024/02/23 07:10:02;;;;;;;2.30;0.75;;;;;;;;;;5076602;28;20403;-84
2024/02/23 07:12:28;;;;;;;2.08;0.68;;;;;;;;;;5072891;28;20471;-84
2024/02/23 07:14:55;;;;;;;3.47;0.90;;;;;;;;;;5073274;28;20436;-84
2024/02/23 07:17:21;;;;;;;2.78;1.00;;;;;;;;;;5067811;28;20381;-84
2024/02/23 07:19:47;;;;;;;2.40;0.93;;;;;;;;;;5071880;28;20364;-84
2024/02/23 07:22:13;;;;;;;3.33;0.77;;;;;;;;;;5064905;28;20389;-84
2024/02/23 07:24:43;;;;;;;2.22;0.90;;;;;;;;;;5067038;28;20384;-84
2024/02/23 07:27:09;;;;;;;1.80;0.80;;;;;;;;;;5061300;28;20386;-84
2024/02/23 07:29:35;;;;;;;2.60;0.70;;;;;;;;;;5063675;28;20475;-84
2024/02/23 07:32:01;;;;;;;2.92;0.85;;;;;;;;;;5069712;28;20464;-84
2024/02/23 07:34:27;;;;;;;2.58;1.10;;;;;;;;;;5071919;28;20380;-84
2024/02/23 07:36:54;;;;;;;4.10;1.75;;;;;;;;;;5072199;28;20380;-84
2024/02/23 07:39:20;;;;;;;9.40;3.83;;;;;;;;;;5060527;28;20863;-84
2024/02/23 07:41:46;;;;;;;7.03;3.30;;;;;;;;;;5057725;28;20404;-84
2024/02/23 07:44:12;;;;;;;6.80;2.45;;;;;;;;;;5065241;28;20400;-84
2024/02/23 07:46:38;;;;;;;6.03;2.10;;;;;;;;;;5068089;28;20450;-84
2024/02/23 07:49:07;;;;;;;2.78;1.00;;;;;;;;;;5069827;28;20390;-84
2024/02/23 07:51:33;;;;;;;3.35;1.08;;;;;;;;;;5065597;28;20468;-84
2024/02/23 07:53:59;;;;;;;2.97;0.90;;;;;;;;;;5076180;28;20379;-84
2024/02/23 07:56:25;;;;;;;3.08;0.85;;;;;;;;;;5075490;28;20372;-84
2024/02/23 07:58:51;;;;;;;2.10;0.73;;;;;;;;;;5071541;28;20376;-84
2024/02/23 08:01:17;;;;;;;1.85;0.60;;;;;;;;;;5072925;28;20702;-84
2024/02/23 08:03:43;;;;;;;2.53;0.80;;;;;;;;;;5066730;28;20400;-84
2024/02/23 08:06:09;;;;;;;3.33;1.00;;;;;;;;;;5057634;28;20397;-84
2024/02/23 08:08:36;;;;;;;1.90;0.60;;;;;;;;;;5062673;28;21037;-84
2024/02/23 08:11:03;;;;;;;2.58;1.00;;;;;;;;;;5066362;28;20380;-84
2024/02/23 08:13:29;;;;;;;2.63;1.00;;;;;;;;;;5060791;28;20462;-85
2024/02/23 08:15:55;;;;;;;2.15;0.73;;;;;;;;;;5060881;28;20374;-84
2024/02/23 08:18:22;;;;;;;3.13;0.93;;;;;;;;;;5057573;28;20396;-84
2024/02/23 08:20:48;;;;;;;2.00;1.00;;;;;;;;;;5057465;28;20382;-84
2024/02/23 08:23:14;;;;;;;4.40;0.90;;;;;;;;;;5074530;28;20459;-84
2024/02/23 08:25:41;;;;;;;1.97;0.67;;;;;;;;;;5072233;28;20495;-84
2024/02/23 08:28:07;;;;;;;2.97;0.93;;;;;;;;;;5065548;28;20382;-84
2024/02/23 08:30:33;;;;;;;4.00;0.80;;;;;;;;;;5067905;28;20772;-84
2024/02/23 08:32:59;;;;;;;1.67;0.60;;;;;;;;;;5072238;28;20488;-85
2024/02/23 08:35:25;;;;;;;3.00;0.77;;;;;;;;;;5068018;28;20970;-85
2024/02/23 08:37:51;;;;;;;3.03;1.10;;;;;;;;;;5058799;28;20413;-85
2024/02/23 08:40:17;;;;;;;2.47;1.17;;;;;;;;;;5063867;28;20375;-85
2024/02/23 08:42:43;;;;;;;3.10;1.65;;;;;;;;;;5073978;28;20398;-84
2024/02/23 08:45:12;;;;;;;3.03;1.10;;;;;;;;;;5074035;28;20388;-85
2024/02/23 08:47:38;;;;;;;3.07;1.03;;;;;;;;;;5067037;28;20390;-85
2024/02/23 08:50:04;;;;;;;3.72;1.00;;;;;;;;;;5067413;28;20896;-85
2024/02/23 08:52:30;;;;;;;3.58;1.10;;;;;;;;;;5066778;28;20862;-85
2024/02/23 08:54:56;;;;;;;2.00;0.80;;;;;;;;;;5067130;28;20865;-84
2024/02/23 08:57:23;;;;;;;2.90;1.00;;;;;;;;;;5056533;28;20422;-84
2024/02/23 08:59:52;;;;;;;3.33;0.70;;;;;;;;;;5061295;28;20878;-84
2024/02/23 09:02:19;;;;;;;2.15;0.95;;;;;;;;;;5072531;28;20388;-84
2024/02/23 09:04:45;;;;;;;3.20;1.10;;;;;;;;;;5073811;28;20387;-84
2024/02/23 09:07:11;;;;;;;3.35;0.82;;;;;;;;;;5075935;28;20387;-84
2024/02/23 09:09:37;;;;;;;2.75;0.73;;;;;;;;;;5068703;28;20466;-84
2024/02/23 09:12:03;;;;;;;2.30;0.77;;;;;;;;;;5075339;28;20534;-84
2024/02/23 09:14:29;;;;;;;3.17;1.10;;;;;;;;;;5068364;28;20425;-84
2024/02/23 09:16:55;;;;;;;2.70;1.10;;;;;;;;;;5075387;28;21103;-84
2024/02/23 09:19:21;;;;;;;4.50;1.10;;;;;;;;;;5075783;28;20452;-84
2024/02/23 09:21:48;;;;;;;2.72;1.25;;;;;;;;;;5075224;28;20388;-84
2024/02/23 09:24:14;;;;;;;2.67;1.23;;;;;;;;;;5075097;28;20504;-83
2024/02/23 09:26:40;;;;;;;2.20;1.00;;;;;;;;;;5076319;28;20384;-83
2024/02/23 09:29:06;;;;;;;2.65;1.10;;;;;;;;;;5069867;28;20405;-83
2024/02/23 09:31:33;;;;;;;1.90;0.90;;;;;;;;;;5074611;28;21251;-84
2024/02/23 09:34:00;;;;;;;1.38;0.90;;;;;;;;;;5075317;28;20372;-83
2024/02/23 09:36:26;;;;;;;1.97;1.10;;;;;;;;;;5075770;28;20375;-83
2024/02/23 09:38:52;;;;;;;2.65;0.80;;;;;;;;;;5072672;28;20397;-83
2024/02/23 09:41:21;;;;;;;1.75;0.80;;;;;;;;;;5059741;28;20439;-83
2024/02/23 09:43:48;;;;;;;2.63;1.80;;;;;;;;;;5059824;28;20410;-82
2024/02/23 09:46:15;;;;;;;2.97;1.40;;;;;;;;;;5062991;28;20382;-83
2024/02/23 09:48:41;;;;;;;4.60;1.43;;;;;;;;;;5062337;28;20389;-83
2024/02/23 09:51:08;;;;;;;2.20;0.97;;;;;;;;;;5072035;28;20387;-83
2024/02/23 09:53:37;;;;;;;1.83;0.77;;;;;;;;;;5074692;28;20401;-83
2024/02/23 09:56:04;;;;;;;4.72;1.20;;;;;;;;;;5070780;28;20394;-82
2024/02/23 09:58:32;;;;;;;2.42;0.90;;;;;;;;;;5079388;28;20396;-83
2024/02/23 10:00:59;;;;;;;2.97;1.23;;;;;;;;;;5079014;28;20429;-83
2024/02/23 10:03:26;;;;;;;2.20;0.70;;;;;;;;;;5079296;28;20929;-83
2024/02/23 10:05:52;;;;;;;4.82;0.85;;;;;;;;;;5071058;28;20376;-83
2024/02/23 10:08:18;;;;;;;2.10;0.73;;;;;;;;;;5078958;28;20854;-83
2024/02/23 10:10:46;;;;;;;1.77;0.90;;;;;;;;;;5078819;28;20415;-82
2024/02/23 10:13:12;;;;;;;3.05;0.90;;;;;;;;;;5078397;28;20411;-83
2024/02/23 10:15:38;;;;;;;2.42;1.00;;;;;;;;;;5073314;28;20388;-83
2024/02/23 10:18:04;;;;;;;2.38;0.90;;;;;;;;;;5067832;28;20382;-83
2024/02/23 10:20:30;;;;;;;3.67;1.07;;;;;;;;;;5078284;28;20390;-83
2024/02/23 10:22:57;;;;;;;3.53;0.82;;;;;;;;;;5077781;28;20411;-82
2024/02/23 10:25:23;;;;;;;3.15;0.90;;;;;;;;;;5075080;28;20876;-82
2024/02/23 10:27:49;;;;;;;2.85;0.90;;;;;;;;;;5074838;28;20383;-81
2024/02/23 10:30:15;;;;;;;2.70;1.30;;;;;;;;;;5075885;28;20400;-82
2024/02/23 10:32:41;;;;;;;2.50;1.10;;;;;;;;;;5076591;28;20854;-83
2024/02/23 10:35:10;;;;;;;1.98;1.00;;;;;;;;;;5071293;28;21166;-83
2024/02/23 10:37:36;;;;;;;2.58;1.00;;;;;;;;;;5077247;28;20722;-83
2024/02/23 10:40:04;;;;;;;2.00;1.00;;;;;;;;;;5069356;28;20379;-82
2024/02/23 10:42:34;;;;;;;2.50;1.00;;;;;;;;;;5077071;28;20380;-82
2024/02/23 10:45:01;;;;;;;3.72;1.58;;;;;;;;;;5073645;28;20385;-81
2024/02/23 10:47:29;;;;;;;4.63;2.03;;;;;;;;;;5070162;28;20383;-81
2024/02/23 10:49:57;;;;;;;3.70;1.35;;;;;;;;;;5075927;28;20412;-82
2024/02/23 10:52:24;;;;;;;8.55;2.72;;;;;;;;;;5077392;28;20494;-82
2024/02/23 10:54:51;;;;;;;4.82;1.40;;;;;;;;;;5077144;28;20800;-81
2024/02/23 10:57:18;;;;;;;3.60;1.40;;;;;;;;;;5059497;28;20394;-81
2024/02/23 10:59:47;;;;;;;6.50;2.00;;;;;;;;;;5056705;28;20436;-81
2024/02/23 11:02:16;;;;;;;3.97;1.40;;;;;;;;;;5055798;28;20823;-81
2024/02/23 11:04:43;;;;;;;4.35;1.65;;;;;;;;;;5055913;28;20393;-81
2024/02/23 11:07:14;;;;;;;4.78;1.50;;;;;;;;;;5055810;28;20430;-81
2024/02/23 11:09:40;;;;;;;4.00;1.10;;;;;;;;;;5056311;28;20700;-82
2024/02/23 11:12:06;;;;;;;3.28;1.25;;;;;;;;;;5056153;28;20397;-81
2024/02/23 11:14:36;;;;;;;3.20;1.20;;;;;;;;;;5055089;28;20457;-82
2024/02/23 11:17:03;;;;;;;5.43;1.05;;;;;;;;;;5055867;28;20385;-81
2024/02/23 11:19:40;;;;;;;5.35;1.70;;;;;;;;;;5054944;28;20381;-81
2024/02/23 11:22:10;;;;;;;4.13;1.45;;;;;;;;;;5054672;28;20386;-81
2024/02/23 11:24:43;;;;;;;3.67;1.23;;;;;;;;;;5055068;28;20378;-81
2024/02/23 11:27:14;;;;;;;3.00;0.70;;;;;;;;;;5054803;28;20921;-81
2024/02/23 11:29:40;;;;;;;2.67;1.00;;;;;;;;;;5056220;28;20441;-82
2024/02/23 11:32:18;;;;;;;3.47;1.50;;;;;;;;;;5055841;28;20412;-82
2024/02/23 11:34:57;;;;;;;3.58;0.93;;;;;;;;;;5069730;28;20963;-82
2024/02/23 11:37:23;;;;;;;3.38;0.88;;;;;;;;;;5054882;28;20394;-82
2024/02/23 11:39:50;;;;;;;2.22;0.80;;;;;;;;;;5056256;28;20373;-82
2024/02/23 11:42:16;;;;;;;4.10;0.90;;;;;;;;;;5055855;28;20895;-82
2024/02/23 11:44:42;;;;;;;3.97;1.00;;;;;;;;;;5056150;28;20488;-82
2024/02/23 11:47:08;;;;;;;2.92;0.90;;;;;;;;;;5062471;28;20419;-82
2024/02/23 11:49:34;;;;;;;4.15;1.40;;;;;;;;;;5063151;28;20390;-82
2024/02/23 11:52:00;;;;;;;4.10;1.20;;;;;;;;;;5073587;28;20398;-82
2024/02/23 11:54:26;;;;;;;3.40;1.10;;;;;;;;;;5064502;28;20738;-83
2024/02/23 11:56:52;;;;;;;3.15;1.05;;;;;;;;;;5079263;28;20403;-83
2024/02/23 11:59:19;;;;;;;2.47;0.65;;;;;;;;;;5082598;28;20753;-84
2024/02/23 12:01:47;;;;;;;5.90;1.10;;;;;;;;;;5084031;28;20387;-84
2024/02/23 12:04:13;;;;;;;5.38;0.80;;;;;;;;;;5077169;28;20376;-83
2024/02/23 12:06:39;;;;;;;3.50;0.80;;;;;;;;;;5077781;28;20859;-83
2024/02/23 12:09:05;;;;;;;2.90;0.80;;;;;;;;;;5083705;28;20856;-83
2024/02/23 12:11:31;;;;;;;2.53;0.98;;;;;;;;;;5077160;28;20403;-83
2024/02/23 12:13:57;;;;;;;3.55;1.00;;;;;;;;;;5077297;28;20434;-83
2024/02/23 12:16:23;;;;;;;1.52;0.70;;;;;;;;;;5078634;28;20395;-83
2024/02/23 12:18:56;;;;;;;4.25;0.93;;;;;;;;;;5077388;28;20889;-83
2024/02/23 12:21:24;;;;;;;3.83;0.70;;;;;;;;;;5077022;28;20407;-83
2024/02/23 12:23:50;;;;;;;3.95;0.98;;;;;;;;;;5067096;28;20377;-83
2024/02/23 12:26:17;;;;;;;3.83;0.60;;;;;;;;;;5074920;28;20434;-83
2024/02/23 12:28:44;;;;;;;2.40;0.80;;;;;;;;;;5078406;28;20387;-83
2024/02/23 12:31:10;;;;;;;2.85;1.00;;;;;;;;;;5087578;28;20387;-82
2024/02/23 12:33:37;;;;;;;2.00;0.75;;;;;;;;;;5071781;28;20401;-83
2024/02/23 12:36:04;;;;;;;3.72;0.77;;;;;;;;;;5075015;28;20471;-83
2024/02/23 12:38:30;;;;;;;4.38;1.00;;;;;;;;;;5075258;28;20435;-83
2024/02/23 12:40:56;;;;;;;2.13;0.85;;;;;;;;;;5070393;28;20368;-83
2024/02/23 12:43:24;;;;;;;5.18;0.80;;;;;;;;;;5075813;28;20443;-83
2024/02/23 12:45:50;;;;;;;2.83;0.90;;;;;;;;;;5073228;28;20745;-83
2024/02/23 12:48:16;;;;;;;2.50;0.68;;;;;;;;;;5076340;28;20435;-83
2024/02/23 12:50:44;;;;;;;2.40;0.90;;;;;;;;;;5077062;28;20477;-83
2024/02/23 12:53:10;;;;;;;2.00;0.70;;;;;;;;;;5076214;28;20923;-83
2024/02/23 12:55:36;;;;;;;2.55;0.75;;;;;;;;;;5068826;28;20387;-83
2024/02/23 12:58:03;;;;;;;2.70;0.77;;;;;;;;;;5075674;28;20403;-83
2024/02/23 13:00:29;;;;;;;2.35;1.00;;;;;;;;;;5076468;28;20421;-83
2024/02/23 13:02:55;;;;;;;2.38;0.80;;;;;;;;;;5076895;28;20384;-83
2024/02/23 13:05:21;;;;;;;4.35;1.02;;;;;;;;;;5071163;28;20395;-83
2024/02/23 13:07:47;;;;;;;2.28;0.80;;;;;;;;;;5076465;28;20388;-83
2024/02/23 13:10:14;;;;;;;1.98;0.60;;;;;;;;;;5076945;28;20415;-83
2024/02/23 13:12:40;;;;;;;3.03;0.95;;;;;;;;;;5079291;28;20407;-83
2024/02/23 13:15:07;;;;;;;4.03;0.75;;;;;;;;;;5080638;28;20454;-83
2024/02/23 13:17:33;;;;;;;1.42;0.57;;;;;;;;;;5078537;28;20452;-83
2024/02/23 13:19:58;;;;;;;3.47;1.40;;;;;;;;;;5070085;28;20806;-83
2024/02/23 13:22:24;;;;;;;2.03;0.80;;;;;;;;;;5080682;28;20387;-83
2024/02/23 13:24:50;;;;;;;2.65;0.77;;;;;;;;;;5080552;28;20410;-83
2024/02/23 13:27:16;;;;;;;5.17;1.00;;;;;;;;;;5080400;28;20387;-83
2024/02/23 13:29:42;;;;;;;2.83;0.90;;;;;;;;;;5080296;28;20766;-83
2024/02/23 13:32:08;;;;;;;3.03;0.80;;;;;;;;;;5075550;28;20415;-83
2024/02/23 13:34:34;;;;;;;1.93;0.70;;;;;;;;;;5080653;28;20376;-83
2024/02/23 13:37:00;;;;;;;2.50;0.73;;;;;;;;;;5081681;28;20383;-83
2024/02/23 13:39:26;;;;;;;2.20;0.80;;;;;;;;;;5073878;28;20378;-83
2024/02/23 13:41:52;;;;;;;2.90;1.07;;;;;;;;;;5080622;28;20952;-83
2024/02/23 13:44:18;;;;;;;4.75;0.80;;;;;;;;;;5076840;28;20375;-85
2024/02/23 13:46:44;;;;;;;4.35;0.90;;;;;;;;;;5069311;28;20395;-84
2024/02/23 13:49:12;;;;;;;4.03;0.90;;;;;;;;;;5080644;28;20781;-83
2024/02/23 13:51:38;;;;;;;3.13;0.90;;;;;;;;;;5072728;28;20438;-83
2024/02/23 13:54:04;;;;;;;2.80;0.70;;;;;;;;;;5080718;28;20853;-84
2024/02/23 13:56:31;;;;;;;4.85;1.10;;;;;;;;;;5071409;28;20411;-84
2024/02/23 13:58:57;;;;;;;2.28;0.77;;;;;;;;;;5080150;28;20379;-83
2024/02/23 14:01:23;;;;;;;2.20;0.73;;;;;;;;;;5075446;28;20398;-83
2024/02/23 14:03:49;;;;;;;4.32;1.00;;;;;;;;;;5079766;28;20459;-82
2024/02/23 14:06:15;;;;;;;2.30;0.83;;;;;;;;;;5079648;28;20415;-83
2024/02/23 14:08:42;;;;;;;2.35;0.90;;;;;;;;;;5079700;28;20394;-83
2024/02/23 14:11:08;;;;;;;2.10;0.90;;;;;;;;;;5079453;28;20753;-83
2024/02/23 14:13:34;;;;;;;3.00;0.80;;;;;;;;;;5079535;28;20741;-83
2024/02/23 14:16:01;;;;;;;4.90;2.75;;;;;;;;;;5079756;28;20436;-83
2024/02/23 14:18:27;;;;;;;11.52;5.75;;;;;;;;;;5079376;28;20375;-82
2024/02/23 14:20:53;;;;;;;2.80;0.90;;;;;;;;;;5079297;28;20371;-83
2024/02/23 14:23:19;;;;;;;1.73;0.70;;;;;;;;;;5069651;28;20376;-82
2024/02/23 14:25:45;;;;;;;3.33;0.90;;;;;;;;;;5079826;28;20395;-82
2024/02/23 14:28:13;;;;;;;3.97;1.10;;;;;;;;;;5076645;28;20388;-83
2024/02/23 14:30:40;;;;;;;2.95;0.63;;;;;;;;;;5079708;28;20434;-83
2024/02/23 14:33:06;;;;;;;3.83;1.10;;;;;;;;;;5077047;28;20409;-83
2024/02/23 14:35:32;;;;;;;2.10;0.60;;;;;;;;;;5065128;28;20396;-83
2024/02/23 14:37:58;;;;;;;3.57;1.40;;;;;;;;;;5068081;28;20413;-83